RYR5EU LEAL-EGSS
Flight info
| Callsign | RYR5EU |
|---|---|
| Flight time | 2h 2m |
| Altitude | 38000 |
| Route | MITOS N608 COMPI Y90 USKAR DCT MOPAS DCT GIROM DCT AGN DCT SECHE DCT UVELI DCT CNA DCT TUPAR UN861 DIKRO UM185 TELTU |
| Aircraft | B738/M-SDFGIJ1LRWYZ/SB1 |
Departure
| Time | 2026-05-04 15:56 |
|---|---|
| Airport | Alicante-Elche Miguel Hernández Airport (LEAL) |
Arrival
| Time | 2026-05-04 17:58 |
|---|---|
| Airport | London Stansted Airport (EGSS) |
| Time | Latitude | Longitude | Altitude | Speed | Heading |
|---|---|---|---|---|---|
| 2026-05-04 15:13 | 38.28408 | -0.55394 | 93 ft | 0 kts | 230° |
| 2026-05-04 15:50 | 38.28406 | -0.55410 | 92 ft | 3 kts | 276° |
| 2026-05-04 15:51 | 38.28442 | -0.55430 | 92 ft | 9 kts | 348° |
| 2026-05-04 15:51 | 38.28481 | -0.55493 | 94 ft | 10 kts | 280° |
| 2026-05-04 15:51 | 38.28485 | -0.55579 | 97 ft | 10 kts | 242° |
| 2026-05-04 15:51 | 38.28424 | -0.55608 | 98 ft | 10 kts | 190° |
| 2026-05-04 15:52 | 38.28374 | -0.55648 | 99 ft | 9 kts | 261° |
| 2026-05-04 15:52 | 38.28383 | -0.55731 | 101 ft | 10 kts | 280° |
| 2026-05-04 15:52 | 38.28395 | -0.55822 | 103 ft | 11 kts | 279° |
| 2026-05-04 15:52 | 38.28409 | -0.55924 | 105 ft | 12 kts | 282° |
| 2026-05-04 15:53 | 38.28425 | -0.56033 | 107 ft | 13 kts | 280° |
| 2026-05-04 15:53 | 38.28443 | -0.56161 | 106 ft | 17 kts | 279° |
| 2026-05-04 15:53 | 38.28467 | -0.56336 | 111 ft | 22 kts | 279° |
| 2026-05-04 15:53 | 38.28494 | -0.56539 | 118 ft | 25 kts | 280° |
| 2026-05-04 15:54 | 38.28526 | -0.56762 | 122 ft | 25 kts | 281° |
| 2026-05-04 15:54 | 38.28557 | -0.56975 | 134 ft | 24 kts | 279° |
| 2026-05-04 15:54 | 38.28584 | -0.57175 | 143 ft | 23 kts | 280° |
| 2026-05-04 15:54 | 38.28610 | -0.57363 | 150 ft | 17 kts | 280° |
| 2026-05-04 15:55 | 38.28603 | -0.57489 | 154 ft | 15 kts | 221° |
| 2026-05-04 15:55 | 38.28505 | -0.57518 | 156 ft | 14 kts | 189° |
| 2026-05-04 15:55 | 38.28443 | -0.57431 | 153 ft | 22 kts | 100° |
| 2026-05-04 15:55 | 38.28371 | -0.56918 | 126 ft | 96 kts | 100° |
| 2026-05-04 15:56 | 38.28216 | -0.55809 | 105 ft | 156 kts | 99° |
| 2026-05-04 15:56 | 38.28027 | -0.54362 | 573 ft | 169 kts | 104° |
| 2026-05-04 15:56 | 38.27801 | -0.52888 | 1304 ft | 173 kts | 104° |
| 2026-05-04 15:56 | 38.27551 | -0.51379 | 2007 ft | 179 kts | 104° |
| 2026-05-04 15:57 | 38.27335 | -0.49674 | 2269 ft | 211 kts | 87° |
| 2026-05-04 15:57 | 38.27835 | -0.47849 | 2632 ft | 225 kts | 59° |
| 2026-05-04 15:57 | 38.28689 | -0.46122 | 3113 ft | 237 kts | 56° |
| 2026-05-04 15:57 | 38.29609 | -0.44348 | 3577 ft | 254 kts | 55° |
| 2026-05-04 15:58 | 38.30636 | -0.42387 | 3949 ft | 274 kts | 55° |
| 2026-05-04 15:58 | 38.31702 | -0.40349 | 4679 ft | 280 kts | 55° |
| 2026-05-04 15:58 | 38.32785 | -0.38274 | 5445 ft | 283 kts | 55° |
| 2026-05-04 15:58 | 38.33770 | -0.36060 | 6153 ft | 290 kts | 57° |
| 2026-05-04 15:59 | 38.35173 | -0.34263 | 6797 ft | 288 kts | 24° |
| 2026-05-04 15:59 | 38.37074 | -0.33560 | 7525 ft | 285 kts | 6° |
| 2026-05-04 15:59 | 38.39038 | -0.33106 | 8246 ft | 289 kts | 6° |
| 2026-05-04 15:59 | 38.41036 | -0.32621 | 8970 ft | 294 kts | 7° |
| 2026-05-04 16:00 | 38.43062 | -0.32084 | 9662 ft | 299 kts | 8° |
| 2026-05-04 16:00 | 38.45093 | -0.31502 | 10234 ft | 308 kts | 8° |
| 2026-05-04 16:00 | 38.47261 | -0.30851 | 10407 ft | 331 kts | 9° |
| 2026-05-04 16:00 | 38.49570 | -0.30127 | 10659 ft | 350 kts | 10° |
| 2026-05-04 16:01 | 38.51957 | -0.29351 | 11199 ft | 357 kts | 10° |
| 2026-05-04 16:01 | 38.54370 | -0.28548 | 11877 ft | 360 kts | 11° |
| 2026-05-04 16:01 | 38.56811 | -0.27724 | 12489 ft | 365 kts | 11° |
| 2026-05-04 16:01 | 38.59283 | -0.26885 | 13175 ft | 370 kts | 11° |
| 2026-05-04 16:02 | 38.61785 | -0.26034 | 13838 ft | 375 kts | 11° |
| 2026-05-04 16:02 | 38.64317 | -0.25172 | 14500 ft | 379 kts | 10° |
| 2026-05-04 16:02 | 38.69472 | -0.23412 | 15775 ft | 388 kts | 10° |
| 2026-05-04 16:03 | 38.72102 | -0.22515 | 16391 ft | 395 kts | 10° |
| 2026-05-04 16:03 | 38.74779 | -0.21601 | 17055 ft | 400 kts | 10° |
| 2026-05-04 16:03 | 38.77470 | -0.20679 | 17773 ft | 402 kts | 10° |
| 2026-05-04 16:03 | 38.80193 | -0.19746 | 18377 ft | 407 kts | 9° |
| 2026-05-04 16:04 | 38.82945 | -0.18802 | 18899 ft | 412 kts | 9° |
| 2026-05-04 16:04 | 38.88498 | -0.16896 | 19983 ft | 418 kts | 9° |
| 2026-05-04 16:04 | 38.91331 | -0.15923 | 20461 ft | 425 kts | 9° |
| 2026-05-04 16:05 | 38.94207 | -0.14935 | 20897 ft | 431 kts | 9° |
| 2026-05-04 16:05 | 38.97117 | -0.13934 | 21443 ft | 434 kts | 9° |
| 2026-05-04 16:05 | 39.02998 | -0.11905 | 22510 ft | 440 kts | 9° |
| 2026-05-04 16:06 | 39.05975 | -0.10877 | 22994 ft | 445 kts | 9° |
| 2026-05-04 16:06 | 39.14016 | -0.08097 | 24213 ft | 453 kts | 9° |
| 2026-05-04 16:07 | 39.18072 | -0.06692 | 24792 ft | 457 kts | 9° |
| 2026-05-04 16:07 | 39.27359 | -0.03468 | 26033 ft | 465 kts | 9° |
| 2026-05-04 16:08 | 39.30497 | -0.02377 | 26436 ft | 467 kts | 9° |
| 2026-05-04 16:08 | 39.40002 | 0.00988 | 27544 ft | 478 kts | 10° |
| 2026-05-04 16:09 | 39.46394 | 0.03362 | 28270 ft | 483 kts | 11° |
| 2026-05-04 16:09 | 39.52887 | 0.05782 | 28988 ft | 487 kts | 10° |
| 2026-05-04 16:10 | 39.59451 | 0.08218 | 29674 ft | 493 kts | 11° |
| 2026-05-04 16:11 | 39.69349 | 0.11893 | 30567 ft | 498 kts | 11° |
| 2026-05-04 16:11 | 39.72693 | 0.13137 | 30820 ft | 500 kts | 11° |
| 2026-05-04 16:12 | 39.82766 | 0.16895 | 31727 ft | 502 kts | 11° |
| 2026-05-04 16:12 | 39.92793 | 0.20648 | 32817 ft | 499 kts | 10° |
| 2026-05-04 16:13 | 39.99486 | 0.23155 | 33440 ft | 499 kts | 10° |
| 2026-05-04 16:13 | 40.06150 | 0.25657 | 34101 ft | 498 kts | 10° |
| 2026-05-04 16:14 | 40.12811 | 0.28159 | 34638 ft | 497 kts | 10° |
| 2026-05-04 16:14 | 40.19407 | 0.30643 | 35210 ft | 495 kts | 10° |
| 2026-05-04 16:15 | 40.29337 | 0.34392 | 36004 ft | 493 kts | 11° |
| 2026-05-04 16:16 | 40.35923 | 0.36887 | 36492 ft | 492 kts | 11° |
| 2026-05-04 16:16 | 40.45801 | 0.40643 | 37055 ft | 493 kts | 11° |
| 2026-05-04 16:17 | 40.52391 | 0.43156 | 37534 ft | 492 kts | 11° |
| 2026-05-04 16:18 | 40.62215 | 0.46911 | 37896 ft | 495 kts | 11° |
| 2026-05-04 16:18 | 40.65517 | 0.48175 | 37909 ft | 494 kts | 11° |
| 2026-05-04 16:19 | 40.81868 | 0.54463 | 37906 ft | 485 kts | 11° |
| 2026-05-04 16:20 | 40.98078 | 0.60719 | 37915 ft | 490 kts | 11° |
| 2026-05-04 16:22 | 41.14630 | 0.67147 | 37923 ft | 501 kts | 11° |
| 2026-05-04 16:23 | 41.34746 | 0.74998 | 37914 ft | 501 kts | 11° |
| 2026-05-04 16:25 | 41.54617 | 0.82806 | 37886 ft | 493 kts | 12° |
| 2026-05-04 16:26 | 41.77460 | 0.91841 | 37927 ft | 487 kts | 12° |
| 2026-05-04 16:28 | 41.93704 | 0.98306 | 37945 ft | 489 kts | 12° |
| 2026-05-04 16:29 | 42.16777 | 1.06384 | 37934 ft | 485 kts | 355° |
| 2026-05-04 16:31 | 42.33595 | 1.04506 | 37906 ft | 481 kts | 349° |
| 2026-05-04 16:32 | 42.53385 | 1.02364 | 37925 ft | 476 kts | 350° |
| 2026-05-04 16:33 | 42.66581 | 1.00919 | 37947 ft | 480 kts | 350° |
| 2026-05-04 16:34 | 42.76600 | 0.99788 | 37923 ft | 481 kts | 347° |
| 2026-05-04 16:35 | 42.86113 | 0.96232 | 37968 ft | 471 kts | 336° |
| 2026-05-04 16:35 | 42.95513 | 0.92060 | 37941 ft | 476 kts | 336° |
| 2026-05-04 16:36 | 43.05009 | 0.87956 | 37979 ft | 477 kts | 337° |
| 2026-05-04 16:37 | 43.14448 | 0.83903 | 37964 ft | 475 kts | 337° |
| 2026-05-04 16:38 | 43.27002 | 0.78488 | 37973 ft | 470 kts | 337° |
| 2026-05-04 16:39 | 43.42500 | 0.71762 | 37968 ft | 466 kts | 338° |
| 2026-05-04 16:40 | 43.53858 | 0.66809 | 37959 ft | 466 kts | 338° |
| 2026-05-04 16:41 | 43.69334 | 0.60028 | 37954 ft | 471 kts | 338° |
| 2026-05-04 16:43 | 43.84940 | 0.53157 | 37935 ft | 473 kts | 338° |
| 2026-05-04 16:43 | 43.94365 | 0.48989 | 37938 ft | 474 kts | 338° |
| 2026-05-04 16:45 | 44.13233 | 0.40602 | 37939 ft | 476 kts | 338° |
| 2026-05-04 16:46 | 44.29044 | 0.33530 | 37937 ft | 477 kts | 339° |
| 2026-05-04 16:47 | 44.41639 | 0.27868 | 37919 ft | 477 kts | 339° |
| 2026-05-04 16:48 | 44.54269 | 0.22165 | 37922 ft | 476 kts | 339° |
| 2026-05-04 16:49 | 44.66885 | 0.16441 | 37924 ft | 476 kts | 339° |
| 2026-05-04 16:50 | 44.79458 | 0.10711 | 37930 ft | 476 kts | 339° |
| 2026-05-04 16:51 | 44.88905 | 0.06388 | 37928 ft | 476 kts | 338° |
| 2026-05-04 16:52 | 45.01496 | 0.00603 | 37932 ft | 476 kts | 338° |
| 2026-05-04 16:53 | 45.10953 | -0.03760 | 37928 ft | 477 kts | 339° |
| 2026-05-04 16:54 | 45.23543 | -0.09591 | 37926 ft | 476 kts | 339° |
| 2026-05-04 16:55 | 45.42438 | -0.18394 | 37961 ft | 476 kts | 339° |
| 2026-05-04 16:56 | 45.58177 | -0.25773 | 37958 ft | 475 kts | 339° |
| 2026-05-04 16:57 | 45.67600 | -0.30213 | 37928 ft | 474 kts | 339° |
| 2026-05-04 16:58 | 45.80059 | -0.36108 | 37927 ft | 474 kts | 339° |
| 2026-05-04 17:00 | 45.98775 | -0.45014 | 37935 ft | 471 kts | 339° |
| 2026-05-04 17:01 | 46.14300 | -0.52451 | 37942 ft | 472 kts | 339° |
| 2026-05-04 17:02 | 46.26831 | -0.58487 | 37932 ft | 475 kts | 339° |
| 2026-05-04 17:03 | 46.36218 | -0.63027 | 37937 ft | 477 kts | 339° |
| 2026-05-04 17:03 | 46.45820 | -0.66962 | 37944 ft | 482 kts | 351° |
| 2026-05-04 17:04 | 46.59208 | -0.69053 | 37943 ft | 483 kts | 352° |
| 2026-05-04 17:05 | 46.72496 | -0.71240 | 37935 ft | 480 kts | 351° |
| 2026-05-04 17:06 | 46.82420 | -0.72928 | 37941 ft | 477 kts | 351° |
| 2026-05-04 17:07 | 46.91178 | -0.74417 | 37944 ft | 475 kts | 351° |
| 2026-05-04 17:07 | 46.98842 | -0.75723 | 37956 ft | 473 kts | 351° |
| 2026-05-04 17:08 | 47.08609 | -0.77394 | 37945 ft | 472 kts | 351° |
| 2026-05-04 17:09 | 47.15143 | -0.78515 | 37951 ft | 472 kts | 351° |
| 2026-05-04 17:09 | 47.21677 | -0.79638 | 37950 ft | 473 kts | 352° |
| 2026-05-04 17:10 | 47.38027 | -0.82462 | 37943 ft | 474 kts | 352° |
| 2026-05-04 17:11 | 47.44592 | -0.83601 | 37948 ft | 475 kts | 352° |
| 2026-05-04 17:12 | 47.54484 | -0.85273 | 37932 ft | 478 kts | 355° |
| 2026-05-04 17:13 | 47.71075 | -0.85375 | 37939 ft | 478 kts | 359° |
| 2026-05-04 17:14 | 47.84374 | -0.85418 | 37943 ft | 478 kts | 359° |
| 2026-05-04 17:15 | 47.94346 | -0.85505 | 37935 ft | 477 kts | 359° |
| 2026-05-04 17:16 | 48.07614 | -0.85614 | 37948 ft | 476 kts | 359° |
| 2026-05-04 17:17 | 48.20816 | -0.85721 | 37938 ft | 474 kts | 359° |
| 2026-05-04 17:18 | 48.34019 | -0.85828 | 37945 ft | 473 kts | 358° |
| 2026-05-04 17:19 | 48.47139 | -0.85935 | 37974 ft | 473 kts | 358° |
| 2026-05-04 17:20 | 48.60327 | -0.86044 | 37973 ft | 474 kts | 358° |
| 2026-05-04 17:20 | 48.70237 | -0.86125 | 37981 ft | 474 kts | 359° |
| 2026-05-04 17:21 | 48.83436 | -0.86234 | 37976 ft | 473 kts | 359° |
| 2026-05-04 17:22 | 48.89974 | -0.86289 | 37977 ft | 472 kts | 359° |
| 2026-05-04 17:23 | 49.03090 | -0.86398 | 37983 ft | 470 kts | 359° |
| 2026-05-04 17:24 | 49.12886 | -0.86481 | 37992 ft | 469 kts | 359° |
| 2026-05-04 17:25 | 49.25910 | -0.86590 | 37993 ft | 467 kts | 359° |
| 2026-05-04 17:26 | 49.38853 | -0.86700 | 37987 ft | 466 kts | 359° |
| 2026-05-04 17:27 | 49.55089 | -0.86838 | 37693 ft | 471 kts | 359° |
| 2026-05-04 17:27 | 49.61611 | -0.86894 | 36623 ft | 469 kts | 359° |
| 2026-05-04 17:28 | 49.68150 | -0.86950 | 35467 ft | 470 kts | 359° |
| 2026-05-04 17:29 | 49.77950 | -0.87035 | 33973 ft | 466 kts | 359° |
| 2026-05-04 17:29 | 49.87552 | -0.87117 | 32564 ft | 457 kts | 360° |
| 2026-05-04 17:30 | 49.96983 | -0.87199 | 31300 ft | 447 kts | 360° |
| 2026-05-04 17:31 | 50.03147 | -0.86982 | 30499 ft | 440 kts | 5° |
| 2026-05-04 17:31 | 50.11184 | -0.85714 | 29330 ft | 431 kts | 6° |
| 2026-05-04 17:32 | 50.17093 | -0.84792 | 28493 ft | 423 kts | 6° |
| 2026-05-04 17:33 | 50.25780 | -0.83541 | 27243 ft | 413 kts | 6° |
| 2026-05-04 17:33 | 50.28633 | -0.83132 | 26832 ft | 410 kts | 6° |
| 2026-05-04 17:34 | 50.37037 | -0.81922 | 25621 ft | 402 kts | 6° |
| 2026-05-04 17:34 | 50.39822 | -0.81519 | 25215 ft | 400 kts | 6° |
| 2026-05-04 17:35 | 50.48070 | -0.80324 | 24024 ft | 394 kts | 6° |
| 2026-05-04 17:35 | 50.53508 | -0.79533 | 23156 ft | 390 kts | 6° |
| 2026-05-04 17:35 | 50.56200 | -0.79141 | 22724 ft | 387 kts | 6° |
| 2026-05-04 17:36 | 50.58876 | -0.78751 | 22308 ft | 384 kts | 6° |
| 2026-05-04 17:36 | 50.61527 | -0.78364 | 21913 ft | 381 kts | 6° |
| 2026-05-04 17:36 | 50.64156 | -0.77980 | 21518 ft | 378 kts | 6° |
| 2026-05-04 17:36 | 50.66769 | -0.77598 | 21126 ft | 375 kts | 6° |
| 2026-05-04 17:37 | 50.69353 | -0.77219 | 20737 ft | 372 kts | 6° |
| 2026-05-04 17:37 | 50.71915 | -0.76844 | 20451 ft | 367 kts | 6° |
| 2026-05-04 17:37 | 50.74464 | -0.76469 | 20213 ft | 373 kts | 6° |
| 2026-05-04 17:37 | 50.77095 | -0.76082 | 19983 ft | 385 kts | 6° |
| 2026-05-04 17:38 | 50.79754 | -0.75691 | 19752 ft | 390 kts | 6° |
| 2026-05-04 17:38 | 50.82403 | -0.74892 | 19468 ft | 385 kts | 20° |
| 2026-05-04 17:38 | 50.84880 | -0.73347 | 19249 ft | 380 kts | 24° |
| 2026-05-04 17:38 | 50.87315 | -0.71718 | 19059 ft | 379 kts | 24° |
| 2026-05-04 17:39 | 50.92193 | -0.68439 | 19004 ft | 381 kts | 23° |
| 2026-05-04 17:39 | 50.94638 | -0.66822 | 18997 ft | 381 kts | 23° |
| 2026-05-04 17:39 | 50.97093 | -0.65213 | 18994 ft | 381 kts | 23° |
| 2026-05-04 17:40 | 50.99544 | -0.63616 | 18995 ft | 381 kts | 23° |
| 2026-05-04 17:40 | 51.01997 | -0.62022 | 19007 ft | 381 kts | 23° |
| 2026-05-04 17:40 | 51.04463 | -0.60422 | 19008 ft | 381 kts | 23° |
| 2026-05-04 17:40 | 51.06885 | -0.58849 | 19012 ft | 381 kts | 23° |
| 2026-05-04 17:41 | 51.09336 | -0.57256 | 19014 ft | 381 kts | 23° |
| 2026-05-04 17:41 | 51.11791 | -0.55659 | 19013 ft | 381 kts | 23° |
| 2026-05-04 17:41 | 51.14244 | -0.54060 | 19015 ft | 381 kts | 23° |
| 2026-05-04 17:41 | 51.16700 | -0.52459 | 19017 ft | 381 kts | 23° |
| 2026-05-04 17:42 | 51.19158 | -0.50854 | 19014 ft | 381 kts | 23° |
| 2026-05-04 17:42 | 51.21610 | -0.49251 | 19016 ft | 381 kts | 23° |
| 2026-05-04 17:42 | 51.24061 | -0.47646 | 19018 ft | 381 kts | 23° |
| 2026-05-04 17:42 | 51.26514 | -0.46038 | 19014 ft | 381 kts | 23° |
| 2026-05-04 17:43 | 51.28968 | -0.44428 | 19015 ft | 381 kts | 23° |
| 2026-05-04 17:43 | 51.31418 | -0.42818 | 19016 ft | 381 kts | 23° |
| 2026-05-04 17:43 | 51.33869 | -0.41206 | 19023 ft | 381 kts | 23° |
| 2026-05-04 17:43 | 51.36318 | -0.39594 | 18905 ft | 378 kts | 22° |
| 2026-05-04 17:44 | 51.38754 | -0.37988 | 18493 ft | 378 kts | 23° |
| 2026-05-04 17:44 | 51.41173 | -0.36392 | 18048 ft | 375 kts | 23° |
| 2026-05-04 17:44 | 51.43587 | -0.34795 | 17466 ft | 376 kts | 23° |
| 2026-05-04 17:44 | 51.45967 | -0.33082 | 17006 ft | 373 kts | 25° |
| 2026-05-04 17:45 | 51.48289 | -0.31301 | 16628 ft | 368 kts | 26° |
| 2026-05-04 17:45 | 51.50593 | -0.29506 | 16151 ft | 366 kts | 26° |
| 2026-05-04 17:45 | 51.52842 | -0.27754 | 15745 ft | 363 kts | 26° |
| 2026-05-04 17:45 | 51.55111 | -0.25994 | 15318 ft | 360 kts | 26° |
| 2026-05-04 17:46 | 51.57362 | -0.24257 | 14927 ft | 357 kts | 25° |
| 2026-05-04 17:46 | 51.59601 | -0.22532 | 14476 ft | 357 kts | 25° |
| 2026-05-04 17:46 | 51.61841 | -0.20808 | 14034 ft | 356 kts | 25° |
| 2026-05-04 17:46 | 51.64056 | -0.19103 | 13675 ft | 351 kts | 24° |
| 2026-05-04 17:47 | 51.66263 | -0.17403 | 13201 ft | 350 kts | 25° |
| 2026-05-04 17:47 | 51.68454 | -0.15714 | 12752 ft | 348 kts | 25° |
| 2026-05-04 17:47 | 51.70628 | -0.14036 | 12269 ft | 348 kts | 25° |
| 2026-05-04 17:47 | 51.72821 | -0.12342 | 11842 ft | 346 kts | 25° |
| 2026-05-04 17:48 | 51.74980 | -0.10672 | 11439 ft | 343 kts | 24° |
| 2026-05-04 17:48 | 51.77105 | -0.09109 | 11203 ft | 331 kts | 22° |
| 2026-05-04 17:48 | 51.79163 | -0.07677 | 11077 ft | 312 kts | 22° |
| 2026-05-04 17:48 | 51.81119 | -0.06329 | 10832 ft | 302 kts | 21° |
| 2026-05-04 17:49 | 51.83032 | -0.05007 | 10478 ft | 297 kts | 21° |
| 2026-05-04 17:49 | 51.84924 | -0.03693 | 10048 ft | 295 kts | 21° |
| 2026-05-04 17:49 | 51.86810 | -0.02377 | 9509 ft | 295 kts | 21° |
| 2026-05-04 17:49 | 51.88697 | -0.01056 | 9157 ft | 295 kts | 21° |
| 2026-05-04 17:50 | 51.90560 | 0.00255 | 8974 ft | 289 kts | 21° |
| 2026-05-04 17:50 | 51.92383 | 0.01544 | 8791 ft | 280 kts | 22° |
| 2026-05-04 17:50 | 51.93951 | 0.03216 | 8667 ft | 270 kts | 46° |
| 2026-05-04 17:50 | 51.94846 | 0.05772 | 8490 ft | 258 kts | 74° |
| 2026-05-04 17:51 | 51.94899 | 0.08651 | 7975 ft | 258 kts | 105° |
| 2026-05-04 17:51 | 51.94082 | 0.11187 | 7454 ft | 254 kts | 136° |
| 2026-05-04 17:51 | 51.92634 | 0.12689 | 6960 ft | 246 kts | 167° |
| 2026-05-04 17:51 | 51.90969 | 0.12785 | 6471 ft | 238 kts | 198° |
| 2026-05-04 17:52 | 51.89533 | 0.11579 | 6003 ft | 231 kts | 218° |
| 2026-05-04 17:52 | 51.88257 | 0.10000 | 5481 ft | 231 kts | 220° |
| 2026-05-04 17:52 | 51.87025 | 0.08421 | 5243 ft | 217 kts | 221° |
| 2026-05-04 17:52 | 51.85887 | 0.06964 | 5103 ft | 200 kts | 220° |
| 2026-05-04 17:53 | 51.84856 | 0.05617 | 4885 ft | 189 kts | 221° |
| 2026-05-04 17:53 | 51.83834 | 0.04274 | 4464 ft | 189 kts | 221° |
| 2026-05-04 17:53 | 51.82811 | 0.02918 | 4059 ft | 191 kts | 220° |
| 2026-05-04 17:53 | 51.81703 | 0.01754 | 3630 ft | 193 kts | 197° |
| 2026-05-04 17:54 | 51.80379 | 0.01837 | 3335 ft | 192 kts | 154° |
| 2026-05-04 17:54 | 51.79398 | 0.03188 | 3102 ft | 185 kts | 123° |
| 2026-05-04 17:54 | 51.78686 | 0.04875 | 2951 ft | 178 kts | 120° |
| 2026-05-04 17:54 | 51.78339 | 0.06686 | 2765 ft | 165 kts | 77° |
| 2026-05-04 17:55 | 51.78857 | 0.08246 | 2676 ft | 157 kts | 51° |
| 2026-05-04 17:55 | 51.79552 | 0.09619 | 2591 ft | 159 kts | 49° |
| 2026-05-04 17:55 | 51.80298 | 0.11010 | 2386 ft | 166 kts | 47° |
| 2026-05-04 17:55 | 51.81110 | 0.12340 | 2156 ft | 166 kts | 43° |
| 2026-05-04 17:56 | 51.81942 | 0.13608 | 1933 ft | 162 kts | 42° |
| 2026-05-04 17:56 | 51.82740 | 0.14811 | 1726 ft | 151 kts | 41° |
| 2026-05-04 17:56 | 51.83472 | 0.15913 | 1535 ft | 141 kts | 43° |
| 2026-05-04 17:56 | 51.84177 | 0.16975 | 1347 ft | 140 kts | 41° |
| 2026-05-04 17:57 | 51.84889 | 0.18047 | 1130 ft | 141 kts | 42° |
| 2026-05-04 17:57 | 51.85620 | 0.19147 | 953 ft | 145 kts | 41° |
| 2026-05-04 17:57 | 51.86359 | 0.20260 | 736 ft | 145 kts | 42° |
| 2026-05-04 17:57 | 51.87099 | 0.21377 | 550 ft | 148 kts | 42° |
| 2026-05-04 17:58 | 51.87861 | 0.22525 | 348 ft | 149 kts | 41° |
| 2026-05-04 17:58 | 51.88557 | 0.23562 | 348 ft | 113 kts | 43° |
| 2026-05-04 17:58 | 51.88963 | 0.24173 | 354 ft | 45 kts | 44° |
| 2026-05-04 17:58 | 51.89100 | 0.24533 | 355 ft | 36 kts | 68° |
| 2026-05-04 17:59 | 51.89169 | 0.24818 | 351 ft | 12 kts | 79° |
| 2026-05-04 17:59 | 51.89159 | 0.24946 | 355 ft | 12 kts | 58° |
| 2026-05-04 17:59 | 51.89221 | 0.25202 | 356 ft | 15 kts | 132° |
| 2026-05-04 18:00 | 51.89221 | 0.25341 | 358 ft | 14 kts | 46° |
| 2026-05-04 18:00 | 51.89227 | 0.25432 | 354 ft | 7 kts | 102° |
| 2026-05-04 18:00 | 51.89220 | 0.25477 | 351 ft | 0 kts | 102° |